createdAt,value
2018-09-09T00:00:09.657Z,61.57
2018-09-09T00:02:41.601Z,62.25
2018-09-09T00:05:14.559Z,62.60
2018-09-09T00:07:46.418Z,62.74
2018-09-09T00:10:18.167Z,63.13
2018-09-09T00:12:50.088Z,63.67
2018-09-09T00:15:21.867Z,62.85
2018-09-09T00:17:54.021Z,63.86
2018-09-09T00:20:25.734Z,64.42
2018-09-09T00:22:57.544Z,62.98
2018-09-09T00:25:29.304Z,63.67
2018-09-09T00:28:01.354Z,64.30
2018-09-09T00:30:33.060Z,63.72
2018-09-09T00:33:05.283Z,64.22
2018-09-09T00:35:36.854Z,63.67
2018-09-09T00:38:09.115Z,63.96
2018-09-09T00:40:40.910Z,63.92
2018-09-09T00:43:12.763Z,63.39
2018-09-09T00:45:44.700Z,63.80
2018-09-09T00:48:16.688Z,62.98
2018-09-09T00:50:53.125Z,63.44
2018-09-09T00:53:29.888Z,64.14
2018-09-09T00:56:01.705Z,63.64
2018-09-09T00:58:33.510Z,64.07
2018-09-09T01:01:09.565Z,63.65
2018-09-09T01:03:41.648Z,63.46
2018-09-09T01:06:13.631Z,63.51
2018-09-09T01:08:45.285Z,63.97
2018-09-09T01:11:17.128Z,64.21
2018-09-09T01:13:49.324Z,64.42
2018-09-09T01:16:21.372Z,64.19
2018-09-09T01:18:53.199Z,63.54
2018-09-09T01:21:25.044Z,64.57
2018-09-09T01:23:56.664Z,64.25
2018-09-09T01:26:28.466Z,63.54
2018-09-09T01:29:00.637Z,63.50
2018-09-09T01:31:32.642Z,64.48
2018-09-09T01:34:04.459Z,64.25
2018-09-09T01:36:36.287Z,63.42
2018-09-09T01:39:11.038Z,63.55
2018-09-09T01:41:42.738Z,63.91
2018-09-09T01:44:14.982Z,64.05
2018-09-09T01:46:46.893Z,63.17
2018-09-09T01:49:18.700Z,63.38
2018-09-09T01:51:50.543Z,64.50
2018-09-09T01:54:22.450Z,65.27
2018-09-09T01:56:54.347Z,65.24
2018-09-09T01:59:26.723Z,63.61
2018-09-09T02:01:58.633Z,63.95
2018-09-09T02:04:30.245Z,64.52
2018-09-09T02:07:01.981Z,64.32
2018-09-09T02:09:33.554Z,63.85
2018-09-09T02:12:05.324Z,64.81
2018-09-09T02:14:37.785Z,64.06
2018-09-09T02:17:09.550Z,66.66
2018-09-09T02:19:41.615Z,69.63
2018-09-09T02:22:13.162Z,70.26
2018-09-09T02:24:44.913Z,70.40
2018-09-09T02:27:16.733Z,71.44
2018-09-09T02:29:48.661Z,70.38
2018-09-09T02:32:20.927Z,71.42
2018-09-09T02:34:52.817Z,71.04
2018-09-09T02:37:25.028Z,70.93
2018-09-09T02:39:57.745Z,71.19
2018-09-09T02:42:29.598Z,70.88
2018-09-09T02:45:01.708Z,70.45
2018-09-09T02:47:33.687Z,70.93
2018-09-09T02:50:05.816Z,70.37
2018-09-09T02:52:37.697Z,71.08
2018-09-09T02:55:09.623Z,70.47
2018-09-09T02:57:41.193Z,71.60
2018-09-09T03:00:13.274Z,71.17
2018-09-09T03:02:45.282Z,70.84
2018-09-09T03:05:17.204Z,71.73
2018-09-09T03:07:49.055Z,72.05
2018-09-09T03:10:21.032Z,70.92
2018-09-09T03:12:52.789Z,71.10
2018-09-09T03:15:24.673Z,71.58
2018-09-09T03:17:56.524Z,71.20
2018-09-09T03:20:28.938Z,70.54
2018-09-09T03:23:00.801Z,71.19
2018-09-09T03:25:32.609Z,72.72
2018-09-09T03:28:04.259Z,71.22
2018-09-09T03:30:36.095Z,71.15
2018-09-09T03:33:09.399Z,72.41
2018-09-09T03:35:41.152Z,72.53
2018-09-09T03:38:12.899Z,72.50
2018-09-09T03:40:46.033Z,72.13
2018-09-09T03:43:17.916Z,71.84
2018-09-09T03:45:50.141Z,71.20
2018-09-09T03:48:21.950Z,72.04
2018-09-09T03:50:53.764Z,71.88
2018-09-09T03:53:25.809Z,71.68
2018-09-09T03:55:57.840Z,72.39
2018-09-09T03:58:29.698Z,72.67
2018-09-09T04:01:01.867Z,72.13
2018-09-09T04:03:33.823Z,72.60
2018-09-09T04:06:06.040Z,71.79
2018-09-09T04:08:38.033Z,72.23
2018-09-09T04:11:10.467Z,72.11
2018-09-09T04:13:43.699Z,72.53
2018-09-09T04:16:15.478Z,72.17
2018-09-09T04:18:47.356Z,71.30
2018-09-09T04:21:19.464Z,72.67
2018-09-09T04:23:51.502Z,73.21
2018-09-09T04:26:23.150Z,72.73
2018-09-09T04:28:54.983Z,72.80
2018-09-09T04:31:27.049Z,72.37
2018-09-09T04:33:58.783Z,72.51
2018-09-09T04:37:07.519Z,73.32
2018-09-09T04:39:39.278Z,74.07
2018-09-09T04:42:11.881Z,73.50
2018-09-09T04:44:43.510Z,74.09
2018-09-09T04:47:15.473Z,74.61
2018-09-09T04:49:47.667Z,74.01
2018-09-09T04:52:19.698Z,73.19
2018-09-09T04:54:51.443Z,72.51
2018-09-09T04:57:23.414Z,72.54
2018-09-09T04:59:55.230Z,73.04
2018-09-09T05:02:27.388Z,72.18
2018-09-09T05:04:59.097Z,73.24
2018-09-09T05:07:31.232Z,72.78
2018-09-09T05:10:03.132Z,72.05
2018-09-09T05:12:35.120Z,73.12
2018-09-09T05:15:07.067Z,72.47
2018-09-09T05:17:39.092Z,72.15
2018-09-09T05:20:10.842Z,71.15
2018-09-09T05:22:43.062Z,72.49
2018-09-09T05:25:14.772Z,71.48
2018-09-09T05:27:46.928Z,70.79
2018-09-09T05:33:20.502Z,71.67
2018-09-09T05:35:52.496Z,71.65
2018-09-09T05:38:24.462Z,71.91
2018-09-09T05:40:56.314Z,71.57
2018-09-09T05:43:29.662Z,72.63
2018-09-09T05:46:01.362Z,72.09
2018-09-09T05:48:34.552Z,70.74
2018-09-09T05:51:06.424Z,72.82
2018-09-09T05:53:38.134Z,73.50
2018-09-09T05:56:09.830Z,73.69
2018-09-09T05:58:41.719Z,74.81
2018-09-09T06:01:13.338Z,74.58
2018-09-09T06:03:45.257Z,74.83
2018-09-09T06:06:16.836Z,74.57
2018-09-09T06:08:48.970Z,74.91
2018-09-09T06:11:20.595Z,74.77
2018-09-09T06:13:52.737Z,74.28
2018-09-09T06:16:24.463Z,74.96
2018-09-09T06:18:56.131Z,74.05
2018-09-09T06:21:27.252Z,74.02
2018-09-09T06:23:59.912Z,74.15
2018-09-09T06:26:32.744Z,75.10
2018-09-09T06:29:04.729Z,73.01
2018-09-09T06:31:36.439Z,73.74
2018-09-09T06:34:08.431Z,75.34
2018-09-09T06:36:40.664Z,76.01
2018-09-09T06:39:13.158Z,74.47
2018-09-09T06:41:44.842Z,73.96
2018-09-09T06:44:17.567Z,74.01
2018-09-09T06:46:49.238Z,74.00
2018-09-09T06:49:21.119Z,74.23
2018-09-09T06:51:52.842Z,74.84
2018-09-09T06:54:24.575Z,74.37
2018-09-09T06:56:56.585Z,74.71
2018-09-09T06:59:28.258Z,75.27
2018-09-09T07:02:00.158Z,74.21
2018-09-09T07:04:32.050Z,73.34
2018-09-09T07:07:04.326Z,73.18
2018-09-09T07:09:35.893Z,73.59
2018-09-09T07:12:07.741Z,74.25
2018-09-09T07:14:39.267Z,73.13
2018-09-09T07:17:10.978Z,73.41
2018-09-09T07:19:43.771Z,73.05
2018-09-09T07:22:15.612Z,72.97
2018-09-09T07:24:47.331Z,73.17
2018-09-09T07:27:19.065Z,73.61
2018-09-09T07:29:50.834Z,74.00
2018-09-09T07:32:22.543Z,74.25
2018-09-09T07:34:54.344Z,74.81
2018-09-09T07:37:26.015Z,74.45
2018-09-09T07:39:57.539Z,73.94
2018-09-09T07:42:29.335Z,74.24
2018-09-09T07:45:01.870Z,74.62
2018-09-09T07:47:33.388Z,73.38
2018-09-09T07:50:05.270Z,73.48
2018-09-09T07:52:36.795Z,73.73
2018-09-09T07:55:08.593Z,73.72
2018-09-09T07:57:40.043Z,74.42
2018-09-09T08:00:11.886Z,73.90
2018-09-09T08:02:43.362Z,72.93
2018-09-09T08:05:15.137Z,72.95
2018-09-09T08:07:46.615Z,73.66
2018-09-09T08:10:18.623Z,73.11
2018-09-09T08:12:51.153Z,73.08
2018-09-09T08:15:23.073Z,72.54
2018-09-09T08:17:54.492Z,72.99
2018-09-09T08:20:26.336Z,71.40
2018-09-09T08:22:57.943Z,71.34
2018-09-09T08:25:29.711Z,71.53
2018-09-09T08:28:01.137Z,71.98
2018-09-09T08:30:33.021Z,71.35
2018-09-09T08:33:04.800Z,72.48
2018-09-09T08:35:36.776Z,71.04
2018-09-09T08:38:08.527Z,70.55
2018-09-09T08:40:40.343Z,70.96
2018-09-09T08:43:12.006Z,70.81
2018-09-09T08:45:45.248Z,69.95
2018-09-09T08:48:16.727Z,70.08
2018-09-09T08:50:48.461Z,70.30
2018-09-09T08:53:20.116Z,70.94
2018-09-09T08:55:52.097Z,70.93
2018-09-09T08:58:23.999Z,70.64
2018-09-09T09:00:56.060Z,70.29
2018-09-09T09:03:27.811Z,69.74
2018-09-09T09:06:00.023Z,71.13
2018-09-09T09:08:31.688Z,69.90
2018-09-09T09:11:03.403Z,70.04
2018-09-09T09:13:35.222Z,69.91
2018-09-09T09:16:06.902Z,70.14
2018-09-09T09:18:39.934Z,70.56
2018-09-09T09:21:11.563Z,70.28
2018-09-09T09:23:43.505Z,70.78
2018-09-09T09:26:15.089Z,70.91
2018-09-09T09:28:46.817Z,71.05
2018-09-09T09:31:19.502Z,70.80
2018-09-09T09:33:51.277Z,69.88
2018-09-09T09:36:22.955Z,70.60
2018-09-09T09:38:54.734Z,71.22
2018-09-09T09:41:26.258Z,71.15
2018-09-09T09:43:59.129Z,70.52
2018-09-09T09:46:32.205Z,72.06
2018-09-09T09:49:03.712Z,71.16
2018-09-09T09:51:35.564Z,70.88
2018-09-09T09:54:07.263Z,70.88
2018-09-09T09:56:39.345Z,71.08
2018-09-09T09:59:11.016Z,71.17
2018-09-09T10:01:42.743Z,71.39
2018-09-09T10:04:14.442Z,70.96
2018-09-09T10:06:47.232Z,71.53
2018-09-09T10:09:18.932Z,70.65
2018-09-09T10:11:50.799Z,71.27
2018-09-09T10:14:22.665Z,70.92
2018-09-09T10:16:54.502Z,70.86
2018-09-09T10:19:26.480Z,70.96
2018-09-09T10:21:58.543Z,71.76
2018-09-09T10:24:31.626Z,71.72
2018-09-09T10:27:03.298Z,72.43
2018-09-09T10:29:35.067Z,71.46
2018-09-09T10:32:06.740Z,72.21
2018-09-09T10:34:38.345Z,71.85
2018-09-09T10:37:10.168Z,72.05
2018-09-09T10:39:41.884Z,71.59
2018-09-09T10:42:13.819Z,71.66
2018-09-09T10:44:45.510Z,72.64
2018-09-09T10:47:17.606Z,72.31
2018-09-09T10:49:49.478Z,71.65
2018-09-09T10:52:21.480Z,72.37
2018-09-09T10:54:53.350Z,71.33
2018-09-09T10:57:24.959Z,71.97
2018-09-09T10:59:56.611Z,71.32
2018-09-09T11:02:28.326Z,72.17
2018-09-09T11:05:00.112Z,72.21
2018-09-09T11:07:32.199Z,71.62
2018-09-09T11:10:03.897Z,72.07
2018-09-09T11:12:35.988Z,73.16
2018-09-09T11:15:07.610Z,72.54
2018-09-09T11:17:39.210Z,71.79
2018-09-09T11:20:10.975Z,72.45
2018-09-09T11:22:43.098Z,72.29
2018-09-09T11:25:14.700Z,71.92
2018-09-09T11:27:46.363Z,72.87
2018-09-09T11:30:18.008Z,73.18
2018-09-09T11:32:50.080Z,72.36
2018-09-09T11:35:23.357Z,72.58
2018-09-09T11:37:56.161Z,73.50
2018-09-09T11:40:27.976Z,73.34
2018-09-09T11:42:59.629Z,72.67
2018-09-09T11:45:32.193Z,73.08
2018-09-09T11:48:03.895Z,72.16
2018-09-09T11:50:35.680Z,73.23
2018-09-09T11:53:07.783Z,71.95
2018-09-09T11:55:39.662Z,72.67
2018-09-09T11:58:11.721Z,71.74
2018-09-09T12:00:43.590Z,71.77
2018-09-09T12:03:15.764Z,72.13
2018-09-09T12:05:47.731Z,71.42
2018-09-09T12:08:19.514Z,72.65
2018-09-09T12:10:51.244Z,72.42
2018-09-09T12:13:23.890Z,73.16
2018-09-09T12:15:56.360Z,73.24
2018-09-09T12:18:29.058Z,72.57
2018-09-09T12:21:00.974Z,72.78
2018-09-09T12:23:32.967Z,72.72
2018-09-09T12:26:05.917Z,73.43
2018-09-09T12:28:39.052Z,73.63
2018-09-09T12:31:10.672Z,72.58
2018-09-09T12:33:42.632Z,73.10
2018-09-09T12:36:14.492Z,73.68
2018-09-09T12:38:46.195Z,72.91
2018-09-09T12:41:17.747Z,73.07
2018-09-09T12:43:54.058Z,73.25
2018-09-09T12:46:30.386Z,73.24
2018-09-09T12:49:05.745Z,73.34
2018-09-09T12:51:37.523Z,73.08
2018-09-09T12:54:09.338Z,74.19
2018-09-09T12:56:41.731Z,74.45
2018-09-09T12:59:13.518Z,74.45
2018-09-09T13:01:45.574Z,74.08
2018-09-09T13:04:18.291Z,73.73
2018-09-09T13:06:50.139Z,74.65
2018-09-09T13:09:21.951Z,74.45
2018-09-09T13:11:53.478Z,72.44
2018-09-09T13:14:25.231Z,72.79
2018-09-09T13:16:56.902Z,73.95
2018-09-09T13:19:28.790Z,74.86
2018-09-09T13:22:00.573Z,74.48
2018-09-09T13:24:32.639Z,74.69
2018-09-09T13:27:04.278Z,74.11
2018-09-09T13:29:36.403Z,73.61
2018-09-09T13:32:08.003Z,73.77
2018-09-09T13:34:40.114Z,73.89
2018-09-09T13:37:11.949Z,73.90
2018-09-09T13:39:43.773Z,74.76
2018-09-09T13:42:15.894Z,73.07
2018-09-09T13:44:47.776Z,74.15
2018-09-09T13:47:19.377Z,73.57
2018-09-09T13:49:50.772Z,74.11
2018-09-09T13:52:22.015Z,73.61
2018-09-09T13:54:53.140Z,73.20
2018-09-09T13:57:24.769Z,73.38
2018-09-09T13:59:56.608Z,72.36
2018-09-09T14:02:28.275Z,72.00
2018-09-09T14:05:00.111Z,72.64
2018-09-09T14:07:31.825Z,73.44
2018-09-09T14:10:03.699Z,72.87
2018-09-09T14:12:35.359Z,73.47
2018-09-09T14:15:07.439Z,73.79
2018-09-09T14:17:39.243Z,73.44
2018-09-09T14:20:11.377Z,73.90
2018-09-09T14:22:43.080Z,73.95
2018-09-09T14:25:15.661Z,73.99
2018-09-09T14:27:47.558Z,73.40
2018-09-09T14:30:19.411Z,74.03
2018-09-09T14:32:51.242Z,71.56
2018-09-09T14:35:22.879Z,71.37
2018-09-09T14:37:54.511Z,73.27
2018-09-09T14:40:27.990Z,73.67
2018-09-09T14:42:59.675Z,73.19
2018-09-09T14:45:31.426Z,74.82
2018-09-09T14:48:03.271Z,73.67
2018-09-09T14:50:35.062Z,74.04
2018-09-09T14:53:06.863Z,73.53
2018-09-09T14:55:38.986Z,73.54
2018-09-09T14:58:10.853Z,74.30
2018-09-09T15:00:42.729Z,73.53
2018-09-09T15:03:14.767Z,73.78
2018-09-09T15:05:46.804Z,73.60
2018-09-09T15:08:19.634Z,74.21
2018-09-09T15:10:51.416Z,74.49
2018-09-09T15:13:23.391Z,73.99
2018-09-09T15:15:55.254Z,74.19
2018-09-09T15:18:28.249Z,73.84
2018-09-09T15:21:01.325Z,74.10
2018-09-09T15:23:33.026Z,75.08
2018-09-09T15:26:05.130Z,74.88
2018-09-09T15:28:36.960Z,69.61
2018-09-09T15:31:08.853Z,69.66
2018-09-09T15:33:40.388Z,69.75
2018-09-09T15:36:11.992Z,70.21
2018-09-09T15:38:44.545Z,70.67
2018-09-09T15:41:17.551Z,70.88
2018-09-09T15:43:50.873Z,71.98
2018-09-09T15:46:23.742Z,71.97
2018-09-09T15:48:56.800Z,72.12
2018-09-09T15:51:29.159Z,69.74
2018-09-09T15:54:01.629Z,69.23
2018-09-09T15:56:34.080Z,70.09
2018-09-09T15:59:06.431Z,70.71
2018-09-09T16:01:41.827Z,71.55
2018-09-09T16:04:15.592Z,71.08
2018-09-09T16:06:47.924Z,71.45
2018-09-09T16:09:21.820Z,72.09
2018-09-09T16:11:54.794Z,72.17
2018-09-09T16:14:27.077Z,72.32
2018-09-09T16:16:58.882Z,71.77
2018-09-09T16:19:30.343Z,71.68
2018-09-09T16:22:02.735Z,70.71
2018-09-09T16:24:35.028Z,70.10
2018-09-09T16:27:07.538Z,70.29
2018-09-09T16:29:40.506Z,69.90
2018-09-09T16:32:14.337Z,69.51
2018-09-09T16:34:47.873Z,69.41
2018-09-09T16:37:20.438Z,69.22
2018-09-09T16:39:52.107Z,59.93
2018-09-09T16:42:24.021Z,60.36
2018-09-09T16:44:55.713Z,61.90
2018-09-09T16:47:27.568Z,63.43
2018-09-09T16:49:59.183Z,62.29
2018-09-09T16:52:32.070Z,62.99
2018-09-09T16:55:03.821Z,63.33
2018-09-09T16:57:36.401Z,65.36
2018-09-09T17:00:09.885Z,65.39
2018-09-09T17:02:41.774Z,65.55
2018-09-09T17:05:13.429Z,66.84
2018-09-09T17:07:45.297Z,67.42
2018-09-09T17:10:16.885Z,66.76
2018-09-09T17:12:48.700Z,67.53
2018-09-09T17:15:20.984Z,67.05
2018-09-09T17:17:53.085Z,68.29
2018-09-09T17:20:24.761Z,67.98
2018-09-09T17:22:56.778Z,67.77
2018-09-09T17:25:29.369Z,66.93
2018-09-09T17:28:01.300Z,67.45
2018-09-09T17:30:33.967Z,66.34
2018-09-09T17:33:05.756Z,67.02
2018-09-09T17:35:38.451Z,67.08
2018-09-09T17:38:10.409Z,66.44
2018-09-09T17:40:43.231Z,66.81
2018-09-09T17:43:18.781Z,66.64
2018-09-09T17:45:51.898Z,67.05
2018-09-09T17:48:23.940Z,68.70
2018-09-09T17:50:55.687Z,68.66
2018-09-09T17:53:27.685Z,68.27
2018-09-09T17:56:00.362Z,68.05
2018-09-09T17:58:32.083Z,69.14
2018-09-09T18:01:04.166Z,68.54
2018-09-09T18:03:36.091Z,67.68
2018-09-09T18:06:10.856Z,68.07
2018-09-09T18:08:42.653Z,68.63
2018-09-09T18:11:14.217Z,68.47
2018-09-09T18:13:46.073Z,68.58
2018-09-09T18:16:17.748Z,68.38
2018-09-09T18:18:49.360Z,68.82
2018-09-09T18:21:21.093Z,68.22
2018-09-09T18:23:53.047Z,67.69
2018-09-09T18:26:25.752Z,67.94
2018-09-09T18:28:59.215Z,67.03
2018-09-09T18:31:31.173Z,67.47
2018-09-09T18:34:03.072Z,68.21
2018-09-09T18:36:34.446Z,67.25
2018-09-09T18:39:08.927Z,67.77
2018-09-09T18:41:40.900Z,67.95
2018-09-09T18:44:12.743Z,67.89
2018-09-09T18:46:45.479Z,63.03
2018-09-09T18:49:18.831Z,62.74
2018-09-09T18:51:52.047Z,63.48
2018-09-09T18:54:24.238Z,64.80
2018-09-09T18:56:55.949Z,66.10
2018-09-09T18:59:28.031Z,65.66
2018-09-09T19:02:00.370Z,66.40
2018-09-09T19:04:34.863Z,67.63
2018-09-09T19:07:06.953Z,67.51
2018-09-09T19:09:38.649Z,67.85
2018-09-09T19:12:10.556Z,67.72
2018-09-09T19:14:42.650Z,68.44
2018-09-09T19:17:15.288Z,68.54
2018-09-09T19:19:46.988Z,69.04
2018-09-09T19:22:18.715Z,69.07
2018-09-09T19:24:50.421Z,68.61
2018-09-09T19:27:21.876Z,69.01
2018-09-09T19:29:53.599Z,69.02
2018-09-09T19:32:25.522Z,68.44
2018-09-09T19:34:57.270Z,69.03
2018-09-09T19:37:29.121Z,69.77
2018-09-09T19:40:00.742Z,69.17
2018-09-09T19:42:36.752Z,68.85
2018-09-09T19:45:08.920Z,68.57
2018-09-09T19:47:40.888Z,69.21
2018-09-09T19:50:12.777Z,68.91
2018-09-09T19:52:44.185Z,69.08
2018-09-09T19:55:15.867Z,69.08
2018-09-09T19:57:47.632Z,69.09
2018-09-09T20:00:19.232Z,69.60
2018-09-09T20:02:51.427Z,69.61
2018-09-09T20:05:23.227Z,68.43
2018-09-09T20:07:55.165Z,69.12
2018-09-09T20:10:27.045Z,69.04
2018-09-09T20:12:58.772Z,68.19
2018-09-09T20:15:30.462Z,68.90
2018-09-09T20:18:02.263Z,69.11
2018-09-09T20:20:34.147Z,68.26
2018-09-09T20:23:05.914Z,67.67
2018-09-09T20:25:37.842Z,67.49
2018-09-09T20:28:09.509Z,67.84
2018-09-09T20:30:41.757Z,67.67
2018-09-09T20:33:13.416Z,67.75
2018-09-09T20:35:45.049Z,68.95
2018-09-09T20:38:16.669Z,68.10
2018-09-09T20:40:48.535Z,68.13
2018-09-09T20:43:20.191Z,67.81
2018-09-09T20:45:52.551Z,68.75
2018-09-09T20:48:24.340Z,68.82
2018-09-09T20:50:56.103Z,68.55
2018-09-09T20:53:27.789Z,67.89
2018-09-09T20:55:59.403Z,67.92
2018-09-09T20:58:31.520Z,68.07
2018-09-09T21:01:03.280Z,68.40
2018-09-09T21:03:35.215Z,67.58
2018-09-09T21:06:06.784Z,68.32
2018-09-09T21:08:38.394Z,67.61
2018-09-09T21:11:10.094Z,68.52
2018-09-09T21:13:41.609Z,67.77
2018-09-09T21:16:13.338Z,68.52
2018-09-09T21:18:44.923Z,67.88
2018-09-09T21:21:17.540Z,68.52
2018-09-09T21:23:49.114Z,68.32
2018-09-09T21:26:20.921Z,67.65
2018-09-09T21:28:52.763Z,68.35
2018-09-09T21:31:24.496Z,68.08
2018-09-09T21:33:56.168Z,67.76
2018-09-09T21:36:28.376Z,68.48
2018-09-09T21:39:00.351Z,69.14
2018-09-09T21:41:32.122Z,68.88
2018-09-09T21:44:03.808Z,68.91
2018-09-09T21:46:35.576Z,68.98
2018-09-09T21:49:07.653Z,68.41
2018-09-09T21:51:39.301Z,67.80
2018-09-09T21:54:11.007Z,68.13
2018-09-09T21:56:43.226Z,68.47
2018-09-09T21:59:14.941Z,67.79
2018-09-09T22:01:51.471Z,67.69
2018-09-09T22:04:23.257Z,67.83
2018-09-09T22:06:54.741Z,67.49
2018-09-09T22:09:26.489Z,67.71
2018-09-09T22:11:58.449Z,68.09
2018-09-09T22:14:31.411Z,66.79
2018-09-09T22:17:03.302Z,68.45
2018-09-09T22:19:34.991Z,67.96
2018-09-09T22:22:07.281Z,68.60
2018-09-09T22:24:38.923Z,68.24
2018-09-09T22:27:10.616Z,67.68
2018-09-09T22:29:42.370Z,67.48
2018-09-09T22:32:14.198Z,67.66
2018-09-09T22:34:45.656Z,67.44
2018-09-09T22:37:17.232Z,68.28
2018-09-09T22:39:49.068Z,67.29
2018-09-09T22:42:20.837Z,67.67
2018-09-09T22:44:52.560Z,67.14
2018-09-09T22:47:24.420Z,67.53
2018-09-09T22:49:56.308Z,67.07
2018-09-09T22:52:27.789Z,67.25
2018-09-09T22:54:59.563Z,67.46
2018-09-09T22:57:31.468Z,67.26
2018-09-09T23:00:03.583Z,67.38
2018-09-09T23:04:00.021Z,66.64
2018-09-09T23:06:32.402Z,67.47
2018-09-09T23:09:04.993Z,66.73
2018-09-09T23:11:36.731Z,66.91
2018-09-09T23:14:09.092Z,67.98
2018-09-09T23:16:40.990Z,67.22
2018-09-09T23:19:13.100Z,67.15
2018-09-09T23:21:45.622Z,67.69
2018-09-09T23:24:18.639Z,67.56
2018-09-09T23:26:50.279Z,67.81
2018-09-09T23:29:22.028Z,67.33
2018-09-09T23:31:53.769Z,66.44
2018-09-09T23:34:25.436Z,67.73
2018-09-09T23:36:57.240Z,67.16
2018-09-09T23:39:29.081Z,67.72
2018-09-09T23:42:00.963Z,67.01
2018-09-09T23:44:32.525Z,67.10
2018-09-09T23:47:04.294Z,68.01
2018-09-09T23:49:36.109Z,68.07
2018-09-09T23:52:07.786Z,67.12
2018-09-09T23:54:39.461Z,67.26
2018-09-09T23:57:11.264Z,67.26
2018-09-09T23:59:43.267Z,67.37
